sensor_id;sensor_type;location;lat;lon;timestamp;P1;durP1;ratioP1;P2;durP2;ratioP2
56427;SDS011;42331;53.578;9.760;2023-02-28T00:00:40;4.65;;;2.30;;
56427;SDS011;42331;53.578;9.760;2023-02-28T00:03:11;5.00;;;1.80;;
56427;SDS011;42331;53.578;9.760;2023-02-28T00:05:41;6.93;;;2.78;;
56427;SDS011;42331;53.578;9.760;2023-02-28T00:08:12;5.22;;;2.13;;
56427;SDS011;42331;53.578;9.760;2023-02-28T00:10:43;6.53;;;2.50;;
56427;SDS011;42331;53.578;9.760;2023-02-28T00:13:14;6.55;;;2.55;;
56427;SDS011;42331;53.578;9.760;2023-02-28T00:15:45;5.30;;;2.20;;
56427;SDS011;42331;53.578;9.760;2023-02-28T00:18:15;7.77;;;2.70;;
56427;SDS011;42331;53.578;9.760;2023-02-28T00:20:46;5.80;;;1.77;;
56427;SDS011;42331;53.578;9.760;2023-02-28T00:23:17;5.32;;;2.67;;
56427;SDS011;42331;53.578;9.760;2023-02-28T00:25:48;7.13;;;2.63;;
56427;SDS011;42331;53.578;9.760;2023-02-28T00:28:18;4.35;;;1.55;;
56427;SDS011;42331;53.578;9.760;2023-02-28T00:30:49;6.90;;;2.37;;
56427;SDS011;42331;53.578;9.760;2023-02-28T00:33:20;6.28;;;2.28;;
56427;SDS011;42331;53.578;9.760;2023-02-28T00:35:51;4.57;;;1.60;;
56427;SDS011;42331;53.578;9.760;2023-02-28T00:38:21;6.65;;;1.85;;
56427;SDS011;42331;53.578;9.760;2023-02-28T00:40:52;6.30;;;2.00;;
56427;SDS011;42331;53.578;9.760;2023-02-28T00:43:23;6.43;;;2.00;;
56427;SDS011;42331;53.578;9.760;2023-02-28T00:45:53;9.13;;;2.42;;
56427;SDS011;42331;53.578;9.760;2023-02-28T00:48:24;4.20;;;1.60;;
56427;SDS011;42331;53.578;9.760;2023-02-28T00:50:55;3.22;;;1.40;;
56427;SDS011;42331;53.578;9.760;2023-02-28T00:53:26;7.20;;;1.93;;
56427;SDS011;42331;53.578;9.760;2023-02-28T00:55:56;5.75;;;2.28;;
56427;SDS011;42331;53.578;9.760;2023-02-28T00:58:27;5.20;;;2.20;;
56427;SDS011;42331;53.578;9.760;2023-02-28T01:00:58;6.22;;;2.35;;
56427;SDS011;42331;53.578;9.760;2023-02-28T01:03:29;5.90;;;2.10;;
56427;SDS011;42331;53.578;9.760;2023-02-28T01:05:59;6.10;;;1.88;;
56427;SDS011;42331;53.578;9.760;2023-02-28T01:08:30;7.57;;;2.10;;
56427;SDS011;42331;53.578;9.760;2023-02-28T01:11:10;4.43;;;1.80;;
56427;SDS011;42331;53.578;9.760;2023-02-28T01:13:42;8.23;;;2.28;;
56427;SDS011;42331;53.578;9.760;2023-02-28T01:16:15;6.85;;;2.08;;
56427;SDS011;42331;53.578;9.760;2023-02-28T01:21:17;5.25;;;1.90;;
56427;SDS011;42331;53.578;9.760;2023-02-28T01:23:49;5.22;;;2.20;;
56427;SDS011;42331;53.578;9.760;2023-02-28T01:26:21;4.53;;;1.75;;
56427;SDS011;42331;53.578;9.760;2023-02-28T01:28:53;5.07;;;1.70;;
56427;SDS011;42331;53.578;9.760;2023-02-28T01:31:24;6.40;;;1.42;;
56427;SDS011;42331;53.578;9.760;2023-02-28T01:33:55;6.05;;;2.20;;
56427;SDS011;42331;53.578;9.760;2023-02-28T01:36:25;7.90;;;2.08;;
56427;SDS011;42331;53.578;9.760;2023-02-28T01:38:56;7.63;;;2.37;;
56427;SDS011;42331;53.578;9.760;2023-02-28T01:41:28;6.57;;;2.10;;
56427;SDS011;42331;53.578;9.760;2023-02-28T01:44:05;7.45;;;2.30;;
56427;SDS011;42331;53.578;9.760;2023-02-28T01:46:56;7.03;;;2.00;;
56427;SDS011;42331;53.578;9.760;2023-02-28T01:49:27;6.25;;;2.00;;
56427;SDS011;42331;53.578;9.760;2023-02-28T01:51:57;6.10;;;1.63;;
56427;SDS011;42331;53.578;9.760;2023-02-28T01:54:32;8.18;;;1.83;;
56427;SDS011;42331;53.578;9.760;2023-02-28T01:57:06;4.30;;;1.75;;
56427;SDS011;42331;53.578;9.760;2023-02-28T01:59:44;5.10;;;1.88;;
56427;SDS011;42331;53.578;9.760;2023-02-28T02:02:26;4.78;;;1.70;;
56427;SDS011;42331;53.578;9.760;2023-02-28T02:07:37;6.82;;;1.85;;
56427;SDS011;42331;53.578;9.760;2023-02-28T02:10:11;6.30;;;2.03;;
56427;SDS011;42331;53.578;9.760;2023-02-28T02:35:43;4.95;;;1.70;;
56427;SDS011;42331;53.578;9.760;2023-02-28T02:41:33;4.03;;;1.50;;
56427;SDS011;42331;53.578;9.760;2023-02-28T02:47:01;5.15;;;1.73;;
56427;SDS011;42331;53.578;9.760;2023-02-28T02:49:36;5.60;;;1.65;;
56427;SDS011;42331;53.578;9.760;2023-02-28T02:52:11;5.22;;;1.80;;
56427;SDS011;42331;53.578;9.760;2023-02-28T02:54:45;4.45;;;1.45;;
56427;SDS011;42331;53.578;9.760;2023-02-28T02:57:21;7.13;;;1.77;;
56427;SDS011;42331;53.578;9.760;2023-02-28T02:59:55;7.38;;;2.28;;
56427;SDS011;42331;53.578;9.760;2023-02-28T03:02:27;3.90;;;1.50;;
56427;SDS011;42331;53.578;9.760;2023-02-28T03:05:05;4.15;;;1.35;;
56427;SDS011;42331;53.578;9.760;2023-02-28T03:07:53;6.10;;;1.40;;
56427;SDS011;42331;53.578;9.760;2023-02-28T03:10:31;7.75;;;1.95;;
56427;SDS011;42331;53.578;9.760;2023-02-28T03:25:27;4.68;;;1.35;;
56427;SDS011;42331;53.578;9.760;2023-02-28T03:28:24;4.70;;;1.42;;
56427;SDS011;42331;53.578;9.760;2023-02-28T03:33:55;3.92;;;1.30;;
56427;SDS011;42331;53.578;9.760;2023-02-28T03:36:47;5.40;;;1.38;;
56427;SDS011;42331;53.578;9.760;2023-02-28T03:39:42;5.65;;;1.38;;
56427;SDS011;42331;53.578;9.760;2023-02-28T03:42:43;6.03;;;1.50;;
56427;SDS011;42331;53.578;9.760;2023-02-28T03:45:35;4.03;;;1.20;;
56427;SDS011;42331;53.578;9.760;2023-02-28T03:48:55;4.97;;;1.60;;
56427;SDS011;42331;53.578;9.760;2023-02-28T03:51:07;6.47;;;1.52;;
56427;SDS011;42331;53.578;9.760;2023-02-28T03:53:43;6.53;;;1.70;;
56427;SDS011;42331;53.578;9.760;2023-02-28T03:58:53;4.07;;;1.60;;
56427;SDS011;42331;53.578;9.760;2023-02-28T04:01:39;6.00;;;1.65;;
56427;SDS011;42331;53.578;9.760;2023-02-28T04:04:13;5.35;;;1.55;;
56427;SDS011;42331;53.578;9.760;2023-02-28T04:06:45;5.50;;;1.73;;
56427;SDS011;42331;53.578;9.760;2023-02-28T04:09:16;8.30;;;1.87;;
56427;SDS011;42331;53.578;9.760;2023-02-28T04:11:50;8.68;;;2.10;;
56427;SDS011;42331;53.578;9.760;2023-02-28T04:14:22;4.55;;;1.73;;
56427;SDS011;42331;53.578;9.760;2023-02-28T04:16:53;5.13;;;1.63;;
56427;SDS011;42331;53.578;9.760;2023-02-28T04:19:24;7.73;;;1.80;;
56427;SDS011;42331;53.578;9.760;2023-02-28T04:21:54;7.17;;;2.00;;
56427;SDS011;42331;53.578;9.760;2023-02-28T04:24:26;7.00;;;2.10;;
56427;SDS011;42331;53.578;9.760;2023-02-28T04:26:58;7.47;;;2.20;;
56427;SDS011;42331;53.578;9.760;2023-02-28T04:29:30;6.17;;;2.07;;
56427;SDS011;42331;53.578;9.760;2023-02-28T04:32:04;6.80;;;1.90;;
56427;SDS011;42331;53.578;9.760;2023-02-28T04:34:35;3.63;;;1.73;;
56427;SDS011;42331;53.578;9.760;2023-02-28T04:37:06;9.60;;;2.10;;
56427;SDS011;42331;53.578;9.760;2023-02-28T04:39:37;5.95;;;1.85;;
56427;SDS011;42331;53.578;9.760;2023-02-28T04:42:08;4.45;;;2.03;;
56427;SDS011;42331;53.578;9.760;2023-02-28T04:44:40;7.28;;;2.20;;
56427;SDS011;42331;53.578;9.760;2023-02-28T04:47:10;7.43;;;2.30;;
56427;SDS011;42331;53.578;9.760;2023-02-28T04:49:41;6.03;;;2.50;;
56427;SDS011;42331;53.578;9.760;2023-02-28T04:52:12;5.63;;;2.40;;
56427;SDS011;42331;53.578;9.760;2023-02-28T04:54:43;8.90;;;2.27;;
56427;SDS011;42331;53.578;9.760;2023-02-28T04:57:13;11.90;;;2.53;;
56427;SDS011;42331;53.578;9.760;2023-02-28T04:59:44;5.87;;;2.30;;
56427;SDS011;42331;53.578;9.760;2023-02-28T05:02:15;6.57;;;2.23;;
56427;SDS011;42331;53.578;9.760;2023-02-28T05:04:46;8.37;;;2.50;;
56427;SDS011;42331;53.578;9.760;2023-02-28T05:07:16;7.63;;;2.75;;
56427;SDS011;42331;53.578;9.760;2023-02-28T05:09:47;6.67;;;2.50;;
56427;SDS011;42331;53.578;9.760;2023-02-28T05:12:18;4.73;;;1.80;;
56427;SDS011;42331;53.578;9.760;2023-02-28T05:14:48;4.53;;;1.80;;
56427;SDS011;42331;53.578;9.760;2023-02-28T05:17:19;14.13;;;2.67;;
56427;SDS011;42331;53.578;9.760;2023-02-28T05:19:50;3.07;;;1.47;;
56427;SDS011;42331;53.578;9.760;2023-02-28T05:22:21;11.30;;;2.70;;
56427;SDS011;42331;53.578;9.760;2023-02-28T05:24:51;4.63;;;2.43;;
56427;SDS011;42331;53.578;9.760;2023-02-28T05:27:22;9.07;;;2.30;;
56427;SDS011;42331;53.578;9.760;2023-02-28T05:29:53;6.67;;;2.67;;
56427;SDS011;42331;53.578;9.760;2023-02-28T05:32:23;4.87;;;1.97;;
56427;SDS011;42331;53.578;9.760;2023-02-28T05:34:54;8.00;;;2.57;;
56427;SDS011;42331;53.578;9.760;2023-02-28T05:37:25;6.47;;;2.50;;
56427;SDS011;42331;53.578;9.760;2023-02-28T05:39:58;8.50;;;3.07;;
56427;SDS011;42331;53.578;9.760;2023-02-28T05:42:38;8.63;;;3.03;;
56427;SDS011;42331;53.578;9.760;2023-02-28T05:45:09;8.73;;;3.07;;
56427;SDS011;42331;53.578;9.760;2023-02-28T05:47:40;5.57;;;2.15;;
56427;SDS011;42331;53.578;9.760;2023-02-28T05:50:10;9.57;;;3.47;;
56427;SDS011;42331;53.578;9.760;2023-02-28T05:52:41;11.10;;;3.77;;
56427;SDS011;42331;53.578;9.760;2023-02-28T05:55:12;9.93;;;3.47;;
56427;SDS011;42331;53.578;9.760;2023-02-28T05:57:42;9.07;;;3.90;;
56427;SDS011;42331;53.578;9.760;2023-02-28T06:00:13;7.20;;;3.47;;
56427;SDS011;42331;53.578;9.760;2023-02-28T06:02:45;8.60;;;3.33;;
56427;SDS011;42331;53.578;9.760;2023-02-28T06:05:17;8.63;;;3.43;;
56427;SDS011;42331;53.578;9.760;2023-02-28T06:10:27;12.13;;;3.58;;
56427;SDS011;42331;53.578;9.760;2023-02-28T06:13:05;7.77;;;3.33;;
56427;SDS011;42331;53.578;9.760;2023-02-28T06:15:36;8.20;;;3.60;;
56427;SDS011;42331;53.578;9.760;2023-02-28T06:18:06;9.23;;;4.53;;
56427;SDS011;42331;53.578;9.760;2023-02-28T06:20:37;10.30;;;3.47;;
56427;SDS011;42331;53.578;9.760;2023-02-28T06:23:08;10.20;;;3.57;;
56427;SDS011;42331;53.578;9.760;2023-02-28T06:25:38;7.47;;;3.00;;
56427;SDS011;42331;53.578;9.760;2023-02-28T06:28:09;12.77;;;3.17;;
56427;SDS011;42331;53.578;9.760;2023-02-28T06:30:42;7.22;;;2.95;;
56427;SDS011;42331;53.578;9.760;2023-02-28T06:33:13;6.97;;;3.07;;
56427;SDS011;42331;53.578;9.760;2023-02-28T06:35:56;7.00;;;3.40;;
56427;SDS011;42331;53.578;9.760;2023-02-28T06:38:31;9.55;;;3.20;;
56427;SDS011;42331;53.578;9.760;2023-02-28T06:41:06;7.80;;;3.20;;
56427;SDS011;42331;53.578;9.760;2023-02-28T06:43:41;7.03;;;3.08;;
56427;SDS011;42331;53.578;9.760;2023-02-28T06:46:13;6.43;;;3.28;;
56427;SDS011;42331;53.578;9.760;2023-02-28T06:51:16;7.47;;;2.80;;
56427;SDS011;42331;53.578;9.760;2023-02-28T06:53:52;5.40;;;2.78;;
56427;SDS011;42331;53.578;9.760;2023-02-28T06:56:23;6.03;;;2.23;;
56427;SDS011;42331;53.578;9.760;2023-02-28T06:58:53;5.17;;;2.63;;
56427;SDS011;42331;53.578;9.760;2023-02-28T07:01:24;10.40;;;2.93;;
56427;SDS011;42331;53.578;9.760;2023-02-28T07:03:55;6.57;;;2.60;;
56427;SDS011;42331;53.578;9.760;2023-02-28T07:06:32;5.80;;;2.80;;
56427;SDS011;42331;53.578;9.760;2023-02-28T07:09:05;8.25;;;3.00;;
56427;SDS011;42331;53.578;9.760;2023-02-28T07:11:36;6.28;;;3.08;;
56427;SDS011;42331;53.578;9.760;2023-02-28T07:14:10;6.63;;;3.37;;
56427;SDS011;42331;53.578;9.760;2023-02-28T07:16:46;13.45;;;6.50;;
56427;SDS011;42331;53.578;9.760;2023-02-28T07:19:20;11.10;;;2.88;;
56427;SDS011;42331;53.578;9.760;2023-02-28T07:22:25;7.50;;;3.65;;
56427;SDS011;42331;53.578;9.760;2023-02-28T07:25:15;7.18;;;2.60;;
56427;SDS011;42331;53.578;9.760;2023-02-28T07:27:55;5.22;;;2.22;;
56427;SDS011;42331;53.578;9.760;2023-02-28T07:30:31;5.50;;;1.80;;
56427;SDS011;42331;53.578;9.760;2023-02-28T07:33:04;7.33;;;2.37;;
56427;SDS011;42331;53.578;9.760;2023-02-28T07:35:38;4.80;;;1.85;;
56427;SDS011;42331;53.578;9.760;2023-02-28T07:44:19;7.47;;;2.33;;
56427;SDS011;42331;53.578;9.760;2023-02-28T07:46:59;5.53;;;1.85;;
56427;SDS011;42331;53.578;9.760;2023-02-28T07:49:34;4.85;;;1.75;;
56427;SDS011;42331;53.578;9.760;2023-02-28T07:52:08;4.47;;;2.08;;
56427;SDS011;42331;53.578;9.760;2023-02-28T07:54:38;7.17;;;2.20;;
56427;SDS011;42331;53.578;9.760;2023-02-28T07:57:12;7.43;;;2.10;;
56427;SDS011;42331;53.578;9.760;2023-02-28T07:59:42;4.78;;;1.50;;
56427;SDS011;42331;53.578;9.760;2023-02-28T08:02:14;8.30;;;2.03;;
56427;SDS011;42331;53.578;9.760;2023-02-28T08:04:48;5.32;;;1.95;;
56427;SDS011;42331;53.578;9.760;2023-02-28T08:07:21;6.13;;;1.85;;
56427;SDS011;42331;53.578;9.760;2023-02-28T08:09:52;4.95;;;1.85;;
56427;SDS011;42331;53.578;9.760;2023-02-28T08:12:23;4.00;;;1.80;;
56427;SDS011;42331;53.578;9.760;2023-02-28T08:14:54;6.50;;;1.67;;
56427;SDS011;42331;53.578;9.760;2023-02-28T08:17:25;4.67;;;1.87;;
56427;SDS011;42331;53.578;9.760;2023-02-28T08:19:59;4.55;;;2.00;;
56427;SDS011;42331;53.578;9.760;2023-02-28T08:22:30;4.40;;;1.63;;
56427;SDS011;42331;53.578;9.760;2023-02-28T08:25:01;1.80;;;0.90;;
56427;SDS011;42331;53.578;9.760;2023-02-28T08:27:32;2.87;;;1.40;;
56427;SDS011;42331;53.578;9.760;2023-02-28T08:30:03;5.87;;;1.30;;
56427;SDS011;42331;53.578;9.760;2023-02-28T08:32:34;5.28;;;1.58;;
56427;SDS011;42331;53.578;9.760;2023-02-28T08:35:05;2.78;;;1.55;;
56427;SDS011;42331;53.578;9.760;2023-02-28T08:37:36;3.63;;;1.30;;
56427;SDS011;42331;53.578;9.760;2023-02-28T08:40:12;3.50;;;1.30;;
56427;SDS011;42331;53.578;9.760;2023-02-28T08:42:48;4.78;;;1.50;;
56427;SDS011;42331;53.578;9.760;2023-02-28T08:45:19;3.75;;;1.17;;
56427;SDS011;42331;53.578;9.760;2023-02-28T08:47:50;3.13;;;1.33;;
56427;SDS011;42331;53.578;9.760;2023-02-28T08:50:25;3.72;;;1.20;;
56427;SDS011;42331;53.578;9.760;2023-02-28T08:56:03;3.95;;;1.55;;
56427;SDS011;42331;53.578;9.760;2023-02-28T08:58:51;3.58;;;1.38;;
56427;SDS011;42331;53.578;9.760;2023-02-28T09:01:34;2.35;;;1.10;;
56427;SDS011;42331;53.578;9.760;2023-02-28T09:04:37;3.85;;;1.27;;
56427;SDS011;42331;53.578;9.760;2023-02-28T09:07:19;4.57;;;1.83;;
56427;SDS011;42331;53.578;9.760;2023-02-28T09:10:00;5.95;;;1.77;;
56427;SDS011;42331;53.578;9.760;2023-02-28T09:12:39;5.35;;;1.20;;
56427;SDS011;42331;53.578;9.760;2023-02-28T09:15:36;4.72;;;1.42;;
56427;SDS011;42331;53.578;9.760;2023-02-28T09:18:31;4.07;;;1.25;;
56427;SDS011;42331;53.578;9.760;2023-02-28T09:21:27;3.55;;;1.40;;
56427;SDS011;42331;53.578;9.760;2023-02-28T09:24:12;3.47;;;1.20;;
56427;SDS011;42331;53.578;9.760;2023-02-28T09:26:56;3.67;;;1.15;;
56427;SDS011;42331;53.578;9.760;2023-02-28T09:29:38;4.22;;;1.10;;
56427;SDS011;42331;53.578;9.760;2023-02-28T09:32:17;3.43;;;1.07;;
56427;SDS011;42331;53.578;9.760;2023-02-28T09:34:53;4.03;;;1.05;;
56427;SDS011;42331;53.578;9.760;2023-02-28T09:37:29;1.75;;;0.75;;
56427;SDS011;42331;53.578;9.760;2023-02-28T09:40:04;4.35;;;1.00;;
56427;SDS011;42331;53.578;9.760;2023-02-28T09:42:35;4.25;;;0.90;;
56427;SDS011;42331;53.578;9.760;2023-02-28T09:45:29;1.70;;;0.57;;
56427;SDS011;42331;53.578;9.760;2023-02-28T09:48:00;2.22;;;1.00;;
56427;SDS011;42331;53.578;9.760;2023-02-28T09:50:52;4.07;;;1.00;;
56427;SDS011;42331;53.578;9.760;2023-02-28T09:53:35;4.07;;;0.98;;
56427;SDS011;42331;53.578;9.760;2023-02-28T09:56:10;2.67;;;1.10;;
56427;SDS011;42331;53.578;9.760;2023-02-28T09:58:49;3.78;;;0.82;;
56427;SDS011;42331;53.578;9.760;2023-02-28T10:07:10;2.33;;;0.80;;
56427;SDS011;42331;53.578;9.760;2023-02-28T10:10:07;1.35;;;0.57;;
56427;SDS011;42331;53.578;9.760;2023-02-28T10:12:57;2.50;;;0.98;;
56427;SDS011;42331;53.578;9.760;2023-02-28T10:15:30;3.42;;;0.70;;
56427;SDS011;42331;53.578;9.760;2023-02-28T10:18:04;1.70;;;0.68;;
56427;SDS011;42331;53.578;9.760;2023-02-28T10:20:40;1.58;;;0.77;;
56427;SDS011;42331;53.578;9.760;2023-02-28T10:23:14;4.40;;;0.85;;
56427;SDS011;42331;53.578;9.760;2023-02-28T10:25:57;1.00;;;0.50;;
56427;SDS011;42331;53.578;9.760;2023-02-28T10:28:30;2.50;;;0.80;;
56427;SDS011;42331;53.578;9.760;2023-02-28T10:31:01;2.90;;;1.00;;
56427;SDS011;42331;53.578;9.760;2023-02-28T10:33:33;3.38;;;1.13;;
56427;SDS011;42331;53.578;9.760;2023-02-28T10:36:05;2.28;;;0.90;;
56427;SDS011;42331;53.578;9.760;2023-02-28T10:38:38;4.50;;;1.30;;
56427;SDS011;42331;53.578;9.760;2023-02-28T10:41:11;4.40;;;1.42;;
56427;SDS011;42331;53.578;9.760;2023-02-28T10:43:46;5.75;;;1.40;;
56427;SDS011;42331;53.578;9.760;2023-02-28T10:46:18;5.28;;;1.60;;
56427;SDS011;42331;53.578;9.760;2023-02-28T10:49:03;3.10;;;1.27;;
56427;SDS011;42331;53.578;9.760;2023-02-28T10:51:37;5.45;;;1.10;;
56427;SDS011;42331;53.578;9.760;2023-02-28T10:54:16;3.20;;;1.00;;
56427;SDS011;42331;53.578;9.760;2023-02-28T10:59:46;3.63;;;1.50;;
56427;SDS011;42331;53.578;9.760;2023-02-28T11:02:34;4.50;;;1.60;;
56427;SDS011;42331;53.578;9.760;2023-02-28T11:07:55;3.42;;;1.17;;
56427;SDS011;42331;53.578;9.760;2023-02-28T11:10:36;4.30;;;1.52;;
56427;SDS011;42331;53.578;9.760;2023-02-28T11:13:12;4.30;;;1.17;;
56427;SDS011;42331;53.578;9.760;2023-02-28T11:15:53;2.72;;;1.17;;
56427;SDS011;42331;53.578;9.760;2023-02-28T11:21:16;3.33;;;1.13;;
56427;SDS011;42331;53.578;9.760;2023-02-28T11:23:51;5.10;;;1.25;;
56427;SDS011;42331;53.578;9.760;2023-02-28T11:26:36;3.75;;;1.20;;
56427;SDS011;42331;53.578;9.760;2023-02-28T11:29:11;3.13;;;1.20;;
56427;SDS011;42331;53.578;9.760;2023-02-28T11:32:03;4.07;;;1.30;;
56427;SDS011;42331;53.578;9.760;2023-02-28T11:34:43;3.00;;;1.20;;
56427;SDS011;42331;53.578;9.760;2023-02-28T11:37:18;5.40;;;1.10;;
56427;SDS011;42331;53.578;9.760;2023-02-28T11:39:49;3.58;;;1.23;;
56427;SDS011;42331;53.578;9.760;2023-02-28T11:42:31;3.47;;;0.98;;
56427;SDS011;42331;53.578;9.760;2023-02-28T11:53:55;2.60;;;0.88;;
56427;SDS011;42331;53.578;9.760;2023-02-28T11:56:38;3.33;;;1.10;;
56427;SDS011;42331;53.578;9.760;2023-02-28T12:02:28;4.18;;;1.02;;
56427;SDS011;42331;53.578;9.760;2023-02-28T12:11:19;4.53;;;0.93;;
56427;SDS011;42331;53.578;9.760;2023-02-28T12:14:06;5.78;;;1.20;;
56427;SDS011;42331;53.578;9.760;2023-02-28T12:19:36;4.20;;;1.27;;
56427;SDS011;42331;53.578;9.760;2023-02-28T12:22:27;2.78;;;1.00;;
56427;SDS011;42331;53.578;9.760;2023-02-28T12:27:39;3.22;;;1.25;;
56427;SDS011;42331;53.578;9.760;2023-02-28T12:30:15;3.72;;;1.00;;
56427;SDS011;42331;53.578;9.760;2023-02-28T12:32:51;2.72;;;1.00;;
56427;SDS011;42331;53.578;9.760;2023-02-28T12:35:36;4.57;;;0.90;;
56427;SDS011;42331;53.578;9.760;2023-02-28T12:38:21;3.30;;;1.10;;
56427;SDS011;42331;53.578;9.760;2023-02-28T12:43:39;3.28;;;1.00;;
56427;SDS011;42331;53.578;9.760;2023-02-28T12:46:21;2.92;;;1.00;;
56427;SDS011;42331;53.578;9.760;2023-02-28T12:49:02;4.88;;;1.05;;
56427;SDS011;42331;53.578;9.760;2023-02-28T12:51:37;2.95;;;1.10;;
56427;SDS011;42331;53.578;9.760;2023-02-28T12:57:26;2.20;;;0.90;;
56427;SDS011;42331;53.578;9.760;2023-02-28T13:00:21;3.40;;;1.30;;
56427;SDS011;42331;53.578;9.760;2023-02-28T13:02:59;4.80;;;1.10;;
56427;SDS011;42331;53.578;9.760;2023-02-28T13:05:45;3.17;;;1.27;;
56427;SDS011;42331;53.578;9.760;2023-02-28T13:08:27;2.63;;;0.90;;
56427;SDS011;42331;53.578;9.760;2023-02-28T13:11:25;2.97;;;1.00;;
56427;SDS011;42331;53.578;9.760;2023-02-28T13:14:29;2.13;;;0.88;;
56427;SDS011;42331;53.578;9.760;2023-02-28T13:28:08;3.35;;;0.95;;
56427;SDS011;42331;53.578;9.760;2023-02-28T13:31:03;3.35;;;1.20;;
56427;SDS011;42331;53.578;9.760;2023-02-28T13:38:44;4.45;;;1.20;;
56427;SDS011;42331;53.578;9.760;2023-02-28T13:47:21;4.53;;;1.35;;
56427;SDS011;42331;53.578;9.760;2023-02-28T13:49:26;3.45;;;1.20;;
56427;SDS011;42331;53.578;9.760;2023-02-28T14:09:18;4.70;;;1.40;;
56427;SDS011;42331;53.578;9.760;2023-02-28T14:11:55;3.60;;;1.40;;
56427;SDS011;42331;53.578;9.760;2023-02-28T14:17:07;2.92;;;1.35;;
56427;SDS011;42331;53.578;9.760;2023-02-28T14:19:44;2.80;;;1.20;;
56427;SDS011;42331;53.578;9.760;2023-02-28T14:25:29;8.05;;;2.13;;
56427;SDS011;42331;53.578;9.760;2023-02-28T14:30:43;3.80;;;1.48;;
56427;SDS011;42331;53.578;9.760;2023-02-28T14:33:32;3.17;;;1.25;;
56427;SDS011;42331;53.578;9.760;2023-02-28T14:36:07;5.90;;;2.00;;
56427;SDS011;42331;53.578;9.760;2023-02-28T14:38:55;5.13;;;1.42;;
56427;SDS011;42331;53.578;9.760;2023-02-28T14:41:31;7.78;;;1.30;;
56427;SDS011;42331;53.578;9.760;2023-02-28T14:44:21;4.20;;;1.70;;
56427;SDS011;42331;53.578;9.760;2023-02-28T14:46:57;2.93;;;1.40;;
56427;SDS011;42331;53.578;9.760;2023-02-28T14:49:41;3.67;;;1.30;;
56427;SDS011;42331;53.578;9.760;2023-02-28T14:54:55;3.10;;;1.15;;
56427;SDS011;42331;53.578;9.760;2023-02-28T14:57:31;2.25;;;1.05;;
56427;SDS011;42331;53.578;9.760;2023-02-28T15:02:45;2.20;;;0.83;;
56427;SDS011;42331;53.578;9.760;2023-02-28T15:05:25;7.68;;;2.50;;
56427;SDS011;42331;53.578;9.760;2023-02-28T15:08:05;4.30;;;1.67;;
56427;SDS011;42331;53.578;9.760;2023-02-28T15:10:42;3.50;;;1.30;;
56427;SDS011;42331;53.578;9.760;2023-02-28T15:13:15;2.72;;;1.30;;
56427;SDS011;42331;53.578;9.760;2023-02-28T15:15:49;5.15;;;1.27;;
56427;SDS011;42331;53.578;9.760;2023-02-28T15:18:48;5.18;;;1.30;;
56427;SDS011;42331;53.578;9.760;2023-02-28T15:21:26;3.53;;;1.27;;
56427;SDS011;42331;53.578;9.760;2023-02-28T15:27:11;7.35;;;1.48;;
56427;SDS011;42331;53.578;9.760;2023-02-28T15:30:04;3.75;;;1.30;;
56427;SDS011;42331;53.578;9.760;2023-02-28T15:32:44;3.80;;;1.40;;
56427;SDS011;42331;53.578;9.760;2023-02-28T15:35:32;2.88;;;1.13;;
56427;SDS011;42331;53.578;9.760;2023-02-28T15:38:12;3.10;;;1.35;;
56427;SDS011;42331;53.578;9.760;2023-02-28T15:40:55;3.58;;;1.35;;
56427;SDS011;42331;53.578;9.760;2023-02-28T15:43:28;3.30;;;1.50;;
56427;SDS011;42331;53.578;9.760;2023-02-28T15:46:10;6.35;;;2.60;;
56427;SDS011;42331;53.578;9.760;2023-02-28T15:51:22;4.72;;;1.70;;
56427;SDS011;42331;53.578;9.760;2023-02-28T15:54:05;3.40;;;1.33;;
56427;SDS011;42331;53.578;9.760;2023-02-28T15:56:45;3.10;;;1.42;;
56427;SDS011;42331;53.578;9.760;2023-02-28T15:59:24;4.65;;;1.52;;
56427;SDS011;42331;53.578;9.760;2023-02-28T16:07:27;2.40;;;1.10;;
56427;SDS011;42331;53.578;9.760;2023-02-28T16:09:59;3.90;;;1.65;;
56427;SDS011;42331;53.578;9.760;2023-02-28T16:12:30;4.23;;;1.73;;
56427;SDS011;42331;53.578;9.760;2023-02-28T16:17:48;4.75;;;1.17;;
56427;SDS011;42331;53.578;9.760;2023-02-28T16:20:29;3.43;;;1.40;;
56427;SDS011;42331;53.578;9.760;2023-02-28T16:23:00;4.72;;;1.17;;
56427;SDS011;42331;53.578;9.760;2023-02-28T16:25:39;4.43;;;1.23;;
56427;SDS011;42331;53.578;9.760;2023-02-28T16:28:15;4.82;;;1.40;;
56427;SDS011;42331;53.578;9.760;2023-02-28T16:30:54;2.50;;;0.90;;
56427;SDS011;42331;53.578;9.760;2023-02-28T16:33:25;4.25;;;1.20;;
56427;SDS011;42331;53.578;9.760;2023-02-28T16:35:55;4.72;;;1.50;;
56427;SDS011;42331;53.578;9.760;2023-02-28T16:38:26;1.83;;;0.85;;
56427;SDS011;42331;53.578;9.760;2023-02-28T16:40:58;5.63;;;1.35;;
56427;SDS011;42331;53.578;9.760;2023-02-28T16:43:31;3.08;;;1.20;;
56427;SDS011;42331;53.578;9.760;2023-02-28T16:46:02;3.93;;;1.30;;
56427;SDS011;42331;53.578;9.760;2023-02-28T16:48:33;3.50;;;1.38;;
56427;SDS011;42331;53.578;9.760;2023-02-28T16:51:04;6.13;;;1.08;;
56427;SDS011;42331;53.578;9.760;2023-02-28T16:53:35;3.17;;;1.02;;
56427;SDS011;42331;53.578;9.760;2023-02-28T16:56:06;2.90;;;1.00;;
56427;SDS011;42331;53.578;9.760;2023-02-28T16:58:40;6.05;;;1.50;;
56427;SDS011;42331;53.578;9.760;2023-02-28T17:01:11;3.65;;;1.30;;
56427;SDS011;42331;53.578;9.760;2023-02-28T17:03:42;8.17;;;1.67;;
56427;SDS011;42331;53.578;9.760;2023-02-28T17:06:20;2.55;;;1.20;;
56427;SDS011;42331;53.578;9.760;2023-02-28T17:08:54;4.22;;;1.40;;
56427;SDS011;42331;53.578;9.760;2023-02-28T17:11:25;4.67;;;1.20;;
56427;SDS011;42331;53.578;9.760;2023-02-28T17:13:56;3.30;;;1.13;;
56427;SDS011;42331;53.578;9.760;2023-02-28T17:16:31;3.85;;;1.02;;
56427;SDS011;42331;53.578;9.760;2023-02-28T17:19:04;4.53;;;1.05;;
56427;SDS011;42331;53.578;9.760;2023-02-28T17:21:36;4.85;;;1.70;;
56427;SDS011;42331;53.578;9.760;2023-02-28T17:24:08;6.40;;;3.87;;
56427;SDS011;42331;53.578;9.760;2023-02-28T17:26:39;15.77;;;7.50;;
56427;SDS011;42331;53.578;9.760;2023-02-28T17:29:16;20.27;;;9.40;;
56427;SDS011;42331;53.578;9.760;2023-02-28T17:31:51;20.75;;;9.05;;
56427;SDS011;42331;53.578;9.760;2023-02-28T17:34:22;18.35;;;7.90;;
56427;SDS011;42331;53.578;9.760;2023-02-28T17:36:52;12.60;;;6.20;;
56427;SDS011;42331;53.578;9.760;2023-02-28T17:39:23;11.55;;;6.07;;
56427;SDS011;42331;53.578;9.760;2023-02-28T17:41:54;10.27;;;6.93;;
56427;SDS011;42331;53.578;9.760;2023-02-28T17:44:25;11.40;;;8.35;;
56427;SDS011;42331;53.578;9.760;2023-02-28T17:46:56;12.60;;;8.23;;
56427;SDS011;42331;53.578;9.760;2023-02-28T17:49:27;10.53;;;5.60;;
56427;SDS011;42331;53.578;9.760;2023-02-28T17:51:58;5.88;;;2.45;;
56427;SDS011;42331;53.578;9.760;2023-02-28T17:54:28;5.68;;;2.58;;
56427;SDS011;42331;53.578;9.760;2023-02-28T17:56:59;6.05;;;2.28;;
56427;SDS011;42331;53.578;9.760;2023-02-28T17:59:30;4.63;;;1.80;;
56427;SDS011;42331;53.578;9.760;2023-02-28T18:02:03;5.03;;;1.70;;
56427;SDS011;42331;53.578;9.760;2023-02-28T18:04:34;4.97;;;1.50;;
56427;SDS011;42331;53.578;9.760;2023-02-28T18:07:05;2.13;;;1.03;;
56427;SDS011;42331;53.578;9.760;2023-02-28T18:12:07;6.53;;;1.90;;
56427;SDS011;42331;53.578;9.760;2023-02-28T18:14:41;6.85;;;2.15;;
56427;SDS011;42331;53.578;9.760;2023-02-28T18:17:12;10.27;;;3.00;;
56427;SDS011;42331;53.578;9.760;2023-02-28T18:19:43;6.87;;;3.20;;
56427;SDS011;42331;53.578;9.760;2023-02-28T18:22:14;3.78;;;2.13;;
56427;SDS011;42331;53.578;9.760;2023-02-28T18:24:45;5.10;;;2.30;;
56427;SDS011;42331;53.578;9.760;2023-02-28T18:27:15;3.63;;;1.60;;
56427;SDS011;42331;53.578;9.760;2023-02-28T18:29:46;4.77;;;2.20;;
56427;SDS011;42331;53.578;9.760;2023-02-28T18:32:18;11.10;;;3.28;;
56427;SDS011;42331;53.578;9.760;2023-02-28T18:34:49;10.80;;;3.87;;
56427;SDS011;42331;53.578;9.760;2023-02-28T18:37:20;8.00;;;3.60;;